Aviation Digital Data Service (ADDS)

Output produced by METARs form (0853 UTC 07 July 2015)
found at http://www.aviationweather.gov/adds/metars/
 
KBMI 070735Z 0708/0806 28005KT 5SM -RA BR VCTS SCT002 BKN015CB OVC025 
     TEMPO 0708/0709 3SM -TSRA BR 
     FM070900 30009KT 5SM -SHRA BR VCTS OVC025CB 
     FM071200 35010KT 2SM -RA BR BKN006 OVC012 
     FM071800 03014KT 4SM BR VCSH BKN007 OVC015 
     FM080100 05012KT P6SM BKN035